sensor_id;sensor_type;location;lat;lon;timestamp;pressure;altitude;pressure_sealevel;temperature;humidity
67740;BME280;54536;50.090;14.420;2022-07-29T00:02:28;99507.00;;;22.26;38.06
67740;BME280;54536;50.090;14.420;2022-07-29T00:04:55;99507.00;;;22.12;38.22
67740;BME280;54536;50.090;14.420;2022-07-29T00:07:21;99504.75;;;22.03;38.34
67740;BME280;54536;50.090;14.420;2022-07-29T00:09:47;99507.00;;;22.06;38.79
67740;BME280;54536;50.090;14.420;2022-07-29T00:12:14;99508.47;;;22.02;38.76
67740;BME280;54536;50.090;14.420;2022-07-29T00:14:40;99503.50;;;21.98;39.43
67740;BME280;54536;50.090;14.420;2022-07-29T00:17:06;99503.09;;;21.95;39.37
67740;BME280;54536;50.090;14.420;2022-07-29T00:19:34;99493.84;;;22.04;38.85
67740;BME280;54536;50.090;14.420;2022-07-29T00:22:01;99497.53;;;21.96;39.77
67740;BME280;54536;50.090;14.420;2022-07-29T00:24:29;99491.75;;;22.06;39.15
67740;BME280;54536;50.090;14.420;2022-07-29T00:26:55;99491.78;;;21.93;38.84
67740;BME280;54536;50.090;14.420;2022-07-29T00:29:22;99488.91;;;21.88;38.41
67740;BME280;54536;50.090;14.420;2022-07-29T00:31:49;99486.66;;;21.85;38.53
67740;BME280;54536;50.090;14.420;2022-07-29T00:34:16;99488.69;;;21.89;38.73
67740;BME280;54536;50.090;14.420;2022-07-29T00:37:15;99482.28;;;21.90;38.71
67740;BME280;54536;50.090;14.420;2022-07-29T00:39:43;99487.25;;;21.80;38.53
67740;BME280;54536;50.090;14.420;2022-07-29T00:42:09;99489.31;;;21.85;38.39
67740;BME280;54536;50.090;14.420;2022-07-29T00:44:42;99486.44;;;21.73;39.15
67740;BME280;54536;50.090;14.420;2022-07-29T00:47:10;99484.97;;;21.84;38.63
67740;BME280;54536;50.090;14.420;2022-07-29T00:49:43;99490.56;;;21.69;38.73
67740;BME280;54536;50.090;14.420;2022-07-29T00:52:11;99481.91;;;21.67;39.12
67740;BME280;54536;50.090;14.420;2022-07-29T00:54:39;99477.38;;;21.54;39.06
67740;BME280;54536;50.090;14.420;2022-07-29T00:57:14;99476.53;;;21.47;39.36
67740;BME280;54536;50.090;14.420;2022-07-29T00:59:41;99476.13;;;21.37;39.56
67740;BME280;54536;50.090;14.420;2022-07-29T01:02:08;99472.66;;;21.49;39.82
67740;BME280;54536;50.090;14.420;2022-07-29T01:04:38;99469.75;;;21.44;40.32
67740;BME280;54536;50.090;14.420;2022-07-29T01:07:10;99465.81;;;21.34;39.98
67740;BME280;54536;50.090;14.420;2022-07-29T01:09:37;99470.53;;;21.32;40.19
67740;BME280;54536;50.090;14.420;2022-07-29T01:12:06;99468.47;;;21.34;40.07
67740;BME280;54536;50.090;14.420;2022-07-29T01:14:34;99467.69;;;21.40;40.15
67740;BME280;54536;50.090;14.420;2022-07-29T01:19:51;99467.69;;;21.40;40.18
67740;BME280;54536;50.090;14.420;2022-07-29T01:22:25;99464.78;;;21.35;40.24
67740;BME280;54536;50.090;14.420;2022-07-29T01:31:02;99452.44;;;21.27;40.51
67740;BME280;54536;50.090;14.420;2022-07-29T01:33:35;99453.69;;;21.38;39.55
67740;BME280;54536;50.090;14.420;2022-07-29T01:39:10;99449.56;;;21.35;40.43
67740;BME280;54536;50.090;14.420;2022-07-29T01:41:42;99447.28;;;21.25;40.81
67740;BME280;54536;50.090;14.420;2022-07-29T01:44:34;99450.78;;;21.33;40.89
67740;BME280;54536;50.090;14.420;2022-07-29T01:47:12;99448.56;;;21.43;40.56
67740;BME280;54536;50.090;14.420;2022-07-29T01:49:49;99440.94;;;21.46;39.60
67740;BME280;54536;50.090;14.420;2022-07-29T01:52:33;99447.06;;;21.34;40.55
67740;BME280;54536;50.090;14.420;2022-07-29T01:55:07;99445.88;;;21.43;40.39
67740;BME280;54536;50.090;14.420;2022-07-29T01:57:40;99448.97;;;21.40;40.20
67740;BME280;54536;50.090;14.420;2022-07-29T02:00:09;99437.41;;;21.33;38.98
67740;BME280;54536;50.090;14.420;2022-07-29T02:02:44;99430.41;;;21.32;40.00
67740;BME280;54536;50.090;14.420;2022-07-29T02:05:17;99438.22;;;21.26;39.73
67740;BME280;54536;50.090;14.420;2022-07-29T02:07:50;99433.28;;;21.23;40.18
67740;BME280;54536;50.090;14.420;2022-07-29T02:10:27;99433.28;;;21.17;40.24
67740;BME280;54536;50.090;14.420;2022-07-29T02:12:57;99434.28;;;21.02;40.42
67740;BME280;54536;50.090;14.420;2022-07-29T02:15:31;99430.78;;;21.02;40.22
67740;BME280;54536;50.090;14.420;2022-07-29T02:18:02;99435.53;;;21.07;39.82
67740;BME280;54536;50.090;14.420;2022-07-29T02:20:42;99432.88;;;21.13;40.68
67740;BME280;54536;50.090;14.420;2022-07-29T02:23:15;99427.28;;;20.95;40.38
67740;BME280;54536;50.090;14.420;2022-07-29T02:25:43;99432.03;;;20.93;40.73
67740;BME280;54536;50.090;14.420;2022-07-29T02:28:16;99438.81;;;21.15;39.75
67740;BME280;54536;50.090;14.420;2022-07-29T02:30:46;99436.75;;;21.04;40.24
67740;BME280;54536;50.090;14.420;2022-07-29T02:33:24;99444.38;;;21.00;40.76
67740;BME280;54536;50.090;14.420;2022-07-29T02:35:52;99447.44;;;21.04;41.12
67740;BME280;54536;50.090;14.420;2022-07-29T02:38:21;99448.91;;;21.00;41.33
67740;BME280;54536;50.090;14.420;2022-07-29T02:41:11;99444.78;;;21.11;40.69
67740;BME280;54536;50.090;14.420;2022-07-29T02:43:40;99446.84;;;21.09;40.41
67740;BME280;54536;50.090;14.420;2022-07-29T02:46:13;99450.16;;;21.17;40.68
67740;BME280;54536;50.090;14.420;2022-07-29T02:48:55;99450.97;;;21.11;40.02
67740;BME280;54536;50.090;14.420;2022-07-29T02:51:28;99450.31;;;21.02;40.07
67740;BME280;54536;50.090;14.420;2022-07-29T02:54:06;99451.97;;;21.03;40.73
67740;BME280;54536;50.090;14.420;2022-07-29T02:56:35;99447.03;;;20.94;40.28
67740;BME280;54536;50.090;14.420;2022-07-29T02:59:08;99438.34;;;20.78;41.09
67740;BME280;54536;50.090;14.420;2022-07-29T03:01:41;99440.19;;;20.78;41.09
67740;BME280;54536;50.090;14.420;2022-07-29T03:04:14;99434.44;;;20.81;40.30
67740;BME280;54536;50.090;14.420;2022-07-29T03:06:44;99440.03;;;20.93;40.36
67740;BME280;54536;50.090;14.420;2022-07-29T03:09:12;99433.25;;;21.03;40.31
67740;BME280;54536;50.090;14.420;2022-07-29T03:11:41;99429.53;;;20.98;40.08
67740;BME280;54536;50.090;14.420;2022-07-29T03:14:12;99439.00;;;21.00;39.69
67740;BME280;54536;50.090;14.420;2022-07-29T03:16:43;99427.25;;;20.81;40.90
67740;BME280;54536;50.090;14.420;2022-07-29T03:19:11;99421.09;;;20.88;39.96
67740;BME280;54536;50.090;14.420;2022-07-29T03:21:49;99433.22;;;20.77;41.52
67740;BME280;54536;50.090;14.420;2022-07-29T03:24:33;99434.19;;;20.69;42.84
67740;BME280;54536;50.090;14.420;2022-07-29T03:27:04;99438.16;;;20.87;42.38
67740;BME280;54536;50.090;14.420;2022-07-29T03:29:32;99435.09;;;20.90;41.94
67740;BME280;54536;50.090;14.420;2022-07-29T03:31:58;99441.69;;;20.94;41.44
67740;BME280;54536;50.090;14.420;2022-07-29T03:34:29;99439.78;;;20.74;40.77
67740;BME280;54536;50.090;14.420;2022-07-29T03:36:58;99442.81;;;20.65;41.47
67740;BME280;54536;50.090;14.420;2022-07-29T03:39:29;99443.19;;;20.55;42.89
67740;BME280;54536;50.090;14.420;2022-07-29T03:42:01;99439.09;;;20.59;42.38
67740;BME280;54536;50.090;14.420;2022-07-29T03:44:28;99439.31;;;20.57;42.43
67740;BME280;54536;50.090;14.420;2022-07-29T03:47:00;99435.59;;;20.52;42.55
67740;BME280;54536;50.090;14.420;2022-07-29T03:49:33;99427.66;;;20.37;43.63
67740;BME280;54536;50.090;14.420;2022-07-29T03:52:02;99430.41;;;20.44;43.86
67740;BME280;54536;50.090;14.420;2022-07-29T03:54:31;99427.81;;;20.57;42.90
67740;BME280;54536;50.090;14.420;2022-07-29T03:57:00;99429.03;;;20.54;43.16
67740;BME280;54536;50.090;14.420;2022-07-29T03:59:27;99426.78;;;20.58;43.19
67740;BME280;54536;50.090;14.420;2022-07-29T04:01:58;99425.34;;;20.62;43.49
67740;BME280;54536;50.090;14.420;2022-07-29T04:04:28;99424.09;;;20.58;43.10
67740;BME280;54536;50.090;14.420;2022-07-29T04:06:54;99427.16;;;20.55;43.44
67740;BME280;54536;50.090;14.420;2022-07-29T04:09:21;99424.41;;;20.42;43.48
67740;BME280;54536;50.090;14.420;2022-07-29T04:11:47;99424.84;;;20.45;43.76
67740;BME280;54536;50.090;14.420;2022-07-29T04:14:14;99433.66;;;20.46;44.28
67740;BME280;54536;50.090;14.420;2022-07-29T04:16:42;99435.94;;;20.49;44.26
67740;BME280;54536;50.090;14.420;2022-07-29T04:19:09;99435.94;;;20.49;43.54
67740;BME280;54536;50.090;14.420;2022-07-29T04:21:39;99441.34;;;20.55;42.99
67740;BME280;54536;50.090;14.420;2022-07-29T04:24:07;99436.81;;;20.56;43.05
67740;BME280;54536;50.090;14.420;2022-07-29T04:26:34;99439.84;;;20.46;43.61
67740;BME280;54536;50.090;14.420;2022-07-29T04:29:07;99437.78;;;20.42;43.70
67740;BME280;54536;50.090;14.420;2022-07-29T04:31:34;99430.78;;;20.41;43.35
67740;BME280;54536;50.090;14.420;2022-07-29T04:34:03;99438.97;;;20.32;43.62
67740;BME280;54536;50.090;14.420;2022-07-29T04:36:33;99431.59;;;20.41;43.20
67740;BME280;54536;50.090;14.420;2022-07-29T04:39:03;99430.19;;;20.45;43.26
67740;BME280;54536;50.090;14.420;2022-07-29T04:41:35;99431.00;;;20.46;42.30
67740;BME280;54536;50.090;14.420;2022-07-29T04:44:01;99437.91;;;20.27;43.25
67740;BME280;54536;50.090;14.420;2022-07-29T04:46:31;99436.25;;;20.26;43.67
67740;BME280;54536;50.090;14.420;2022-07-29T04:49:03;99440.34;;;20.22;43.13
67740;BME280;54536;50.090;14.420;2022-07-29T04:51:35;99444.97;;;20.06;43.46
67740;BME280;54536;50.090;14.420;2022-07-29T04:54:02;99451.09;;;20.00;44.36
67740;BME280;54536;50.090;14.420;2022-07-29T04:56:28;99447.94;;;20.18;43.60
67740;BME280;54536;50.090;14.420;2022-07-29T04:58:55;99446.28;;;20.24;43.13
67740;BME280;54536;50.090;14.420;2022-07-29T05:01:21;99450.06;;;20.36;43.61
67740;BME280;54536;50.090;14.420;2022-07-29T05:03:47;99450.09;;;20.43;43.26
67740;BME280;54536;50.090;14.420;2022-07-29T05:06:20;99463.88;;;20.46;42.77
67740;BME280;54536;50.090;14.420;2022-07-29T05:12:24;99458.75;;;20.45;43.20
67740;BME280;54536;50.090;14.420;2022-07-29T05:14:55;99461.72;;;20.70;42.73
67740;BME280;54536;50.090;14.420;2022-07-29T05:17:22;99451.88;;;20.64;43.42
67740;BME280;54536;50.090;14.420;2022-07-29T05:19:48;99452.16;;;20.41;43.79
67740;BME280;54536;50.090;14.420;2022-07-29T05:22:20;99449.66;;;20.39;43.64
67740;BME280;54536;50.090;14.420;2022-07-29T05:24:46;99451.59;;;20.52;43.27
67740;BME280;54536;50.090;14.420;2022-07-29T05:27:13;99445.69;;;20.70;42.45
67740;BME280;54536;50.090;14.420;2022-07-29T05:29:42;99445.34;;;20.86;42.69
67740;BME280;54536;50.090;14.420;2022-07-29T05:32:08;99448.84;;;20.87;42.34
67740;BME280;54536;50.090;14.420;2022-07-29T05:34:36;99450.94;;;21.04;42.02
67740;BME280;54536;50.090;14.420;2022-07-29T05:37:02;99452.38;;;21.00;42.44
67740;BME280;54536;50.090;14.420;2022-07-29T05:39:29;99450.50;;;20.88;42.88
67740;BME280;54536;50.090;14.420;2022-07-29T05:41:57;99447.03;;;20.94;42.55
67740;BME280;54536;50.090;14.420;2022-07-29T05:44:24;99448.28;;;21.04;40.91
67740;BME280;54536;50.090;14.420;2022-07-29T05:46:53;99458.16;;;21.17;41.51
67740;BME280;54536;50.090;14.420;2022-07-29T05:49:23;99453.25;;;21.34;40.95
67740;BME280;54536;50.090;14.420;2022-07-29T05:51:49;99455.56;;;21.57;40.85
67740;BME280;54536;50.090;14.420;2022-07-29T05:54:19;99457.41;;;21.50;40.37
67740;BME280;54536;50.090;14.420;2022-07-29T05:56:53;99456.38;;;21.64;40.65
67740;BME280;54536;50.090;14.420;2022-07-29T05:59:28;99450.81;;;21.53;40.42
67740;BME280;54536;50.090;14.420;2022-07-29T06:01:54;99446.28;;;21.73;39.96
67740;BME280;54536;50.090;14.420;2022-07-29T06:04:23;99454.13;;;21.81;39.62
67740;BME280;54536;50.090;14.420;2022-07-29T06:06:50;99443.38;;;21.68;40.29
67740;BME280;54536;50.090;14.420;2022-07-29T06:09:27;99440.13;;;21.72;39.97
67740;BME280;54536;50.090;14.420;2022-07-29T06:11:56;99442.38;;;21.82;40.00
67740;BME280;54536;50.090;14.420;2022-07-29T06:14:25;99441.31;;;21.83;39.42
67740;BME280;54536;50.090;14.420;2022-07-29T06:16:52;99431.03;;;21.87;39.10
67740;BME280;54536;50.090;14.420;2022-07-29T06:19:27;99443.78;;;22.05;38.27
67740;BME280;54536;50.090;14.420;2022-07-29T06:21:58;99439.81;;;22.34;37.70
67740;BME280;54536;50.090;14.420;2022-07-29T06:24:25;99434.63;;;22.32;38.30
67740;BME280;54536;50.090;14.420;2022-07-29T06:26:57;99442.00;;;22.50;38.23
67740;BME280;54536;50.090;14.420;2022-07-29T06:29:29;99441.16;;;22.56;37.20
67740;BME280;54536;50.090;14.420;2022-07-29T06:32:21;99437.75;;;22.74;37.73
67740;BME280;54536;50.090;14.420;2022-07-29T06:35:30;99452.38;;;22.78;37.16
67740;BME280;54536;50.090;14.420;2022-07-29T06:38:03;99445.44;;;22.64;37.52
67740;BME280;54536;50.090;14.420;2022-07-29T06:40:46;99453.66;;;22.69;36.99
67740;BME280;54536;50.090;14.420;2022-07-29T06:46:29;99466.66;;;22.65;37.72
67740;BME280;54536;50.090;14.420;2022-07-29T06:49:01;99471.25;;;22.58;37.77
67740;BME280;54536;50.090;14.420;2022-07-29T06:51:52;99462.78;;;22.61;37.72
67740;BME280;54536;50.090;14.420;2022-07-29T06:54:28;99469.19;;;22.60;37.97
67740;BME280;54536;50.090;14.420;2022-07-29T06:57:35;99459.44;;;22.66;37.69
67740;BME280;54536;50.090;14.420;2022-07-29T07:00:06;99464.72;;;22.86;37.38
67740;BME280;54536;50.090;14.420;2022-07-29T07:02:38;99465.13;;;22.89;37.24
67740;BME280;54536;50.090;14.420;2022-07-29T07:05:08;99468.00;;;22.95;37.62
67740;BME280;54536;50.090;14.420;2022-07-29T07:07:38;99469.22;;;22.99;36.83
67740;BME280;54536;50.090;14.420;2022-07-29T07:10:28;99476.34;;;23.11;36.87
67740;BME280;54536;50.090;14.420;2022-07-29T07:13:05;99474.28;;;23.13;37.21
67740;BME280;54536;50.090;14.420;2022-07-29T07:15:56;99477.19;;;23.12;37.12
67740;BME280;54536;50.090;14.420;2022-07-29T07:18:33;99481.44;;;23.26;36.58
67740;BME280;54536;50.090;14.420;2022-07-29T07:21:08;99473.00;;;23.48;36.48
67740;BME280;54536;50.090;14.420;2022-07-29T07:23:34;99477.75;;;23.52;35.67
67740;BME280;54536;50.090;14.420;2022-07-29T07:26:00;99472.34;;;23.84;35.37
67740;BME280;54536;50.090;14.420;2022-07-29T07:28:34;99466.91;;;24.09;35.09
67740;BME280;54536;50.090;14.420;2022-07-29T07:31:05;99470.19;;;23.93;35.83
67740;BME280;54536;50.090;14.420;2022-07-29T07:33:43;99464.09;;;24.04;35.56
67740;BME280;54536;50.090;14.420;2022-07-29T07:39:27;99464.38;;;23.96;35.25
67740;BME280;54536;50.090;14.420;2022-07-29T07:42:14;99464.91;;;24.23;35.15
67740;BME280;54536;50.090;14.420;2022-07-29T07:44:43;99462.09;;;24.18;35.43
67740;BME280;54536;50.090;14.420;2022-07-29T07:47:22;99456.75;;;23.93;36.08
67740;BME280;54536;50.090;14.420;2022-07-29T07:49:53;99455.50;;;23.95;35.52
67740;BME280;54536;50.090;14.420;2022-07-29T07:52:23;99459.03;;;24.14;35.38
67740;BME280;54536;50.090;14.420;2022-07-29T07:54:50;99454.53;;;24.08;35.80
67740;BME280;54536;50.090;14.420;2022-07-29T07:57:31;99448.66;;;24.18;35.42
67740;BME280;54536;50.090;14.420;2022-07-29T08:00:12;99440.88;;;24.28;35.01
67740;BME280;54536;50.090;14.420;2022-07-29T08:02:43;99448.94;;;24.28;35.58
67740;BME280;54536;50.090;14.420;2022-07-29T08:05:12;99445.06;;;24.24;35.67
67740;BME280;54536;50.090;14.420;2022-07-29T08:07:45;99451.53;;;24.16;35.25
67740;BME280;54536;50.090;14.420;2022-07-29T08:10:33;99451.63;;;24.10;35.55
67740;BME280;54536;50.090;14.420;2022-07-29T08:13:22;99449.19;;;24.45;35.25
67740;BME280;54536;50.090;14.420;2022-07-29T08:15:58;99444.38;;;24.65;34.65
67740;BME280;54536;50.090;14.420;2022-07-29T08:18:46;99441.94;;;24.94;34.39
67740;BME280;54536;50.090;14.420;2022-07-29T08:21:15;99446.03;;;25.27;33.75
67740;BME280;54536;50.090;14.420;2022-07-29T08:23:49;99445.56;;;25.18;33.36
67740;BME280;54536;50.090;14.420;2022-07-29T08:26:42;99454.16;;;25.08;34.33
67740;BME280;54536;50.090;14.420;2022-07-29T08:29:11;99450.03;;;25.36;33.56
67740;BME280;54536;50.090;14.420;2022-07-29T08:31:42;99454.47;;;25.30;33.56
67740;BME280;54536;50.090;14.420;2022-07-29T08:34:22;99452.13;;;25.04;34.45
67740;BME280;54536;50.090;14.420;2022-07-29T08:36:48;99458.56;;;25.03;34.33
67740;BME280;54536;50.090;14.420;2022-07-29T08:39:20;99454.47;;;25.00;34.83
67740;BME280;54536;50.090;14.420;2022-07-29T08:42:00;99455.53;;;25.11;34.55
67740;BME280;54536;50.090;14.420;2022-07-29T08:44:34;99453.25;;;25.14;34.50
67740;BME280;54536;50.090;14.420;2022-07-29T08:47:02;99453.03;;;25.16;34.04
67740;BME280;54536;50.090;14.420;2022-07-29T08:49:35;99454.34;;;25.25;34.44
67740;BME280;54536;50.090;14.420;2022-07-29T08:52:05;99458.16;;;24.87;35.11
67740;BME280;54536;50.090;14.420;2022-07-29T08:54:43;99458.78;;;25.01;35.21
67740;BME280;54536;50.090;14.420;2022-07-29T08:57:21;99462.53;;;25.00;35.17
67740;BME280;54536;50.090;14.420;2022-07-29T09:00:01;99462.63;;;25.12;34.82
67740;BME280;54536;50.090;14.420;2022-07-29T09:02:41;99455.13;;;25.14;34.73
67740;BME280;54536;50.090;14.420;2022-07-29T09:05:24;99448.84;;;25.43;33.98
67740;BME280;54536;50.090;14.420;2022-07-29T09:07:51;99452.63;;;25.54;33.52
67740;BME280;54536;50.090;14.420;2022-07-29T09:10:24;99452.50;;;25.49;34.01
67740;BME280;54536;50.090;14.420;2022-07-29T09:13:14;99455.47;;;25.71;33.95
67740;BME280;54536;50.090;14.420;2022-07-29T09:15:57;99453.38;;;25.85;33.82
67740;BME280;54536;50.090;14.420;2022-07-29T09:18:40;99455.03;;;25.98;33.12
67740;BME280;54536;50.090;14.420;2022-07-29T09:21:13;99454.19;;;26.09;33.25
67740;BME280;54536;50.090;14.420;2022-07-29T09:24:09;99451.22;;;26.34;32.85
67740;BME280;54536;50.090;14.420;2022-07-29T09:26:43;99448.25;;;26.47;32.63
67740;BME280;54536;50.090;14.420;2022-07-29T09:29:13;99439.25;;;26.53;32.45
67740;BME280;54536;50.090;14.420;2022-07-29T09:31:51;99449.50;;;26.16;33.05
67740;BME280;54536;50.090;14.420;2022-07-29T09:34:25;99445.47;;;26.30;33.31
67740;BME280;54536;50.090;14.420;2022-07-29T09:36:54;99450.53;;;26.15;33.06
67740;BME280;54536;50.090;14.420;2022-07-29T09:42:03;99448.03;;;26.37;32.79
67740;BME280;54536;50.090;14.420;2022-07-29T09:44:49;99445.91;;;26.51;32.76
67740;BME280;54536;50.090;14.420;2022-07-29T09:47:18;99441.50;;;26.73;33.00
67740;BME280;54536;50.090;14.420;2022-07-29T09:49:54;99443.00;;;26.41;33.14
67740;BME280;54536;50.090;14.420;2022-07-29T09:52:30;99431.63;;;26.50;33.66
67740;BME280;54536;50.090;14.420;2022-07-29T09:55:17;99426.56;;;26.54;33.58
67740;BME280;54536;50.090;14.420;2022-07-29T09:57:47;99431.63;;;26.38;33.58
67740;BME280;54536;50.090;14.420;2022-07-29T10:00:18;99428.06;;;26.61;33.38
67740;BME280;54536;50.090;14.420;2022-07-29T10:02:47;99430.72;;;26.73;33.01
67740;BME280;54536;50.090;14.420;2022-07-29T10:05:23;99432.28;;;26.57;33.59
67740;BME280;54536;50.090;14.420;2022-07-29T10:07:50;99435.00;;;26.57;33.23
67740;BME280;54536;50.090;14.420;2022-07-29T10:12:59;99431.63;;;26.79;33.34
67740;BME280;54536;50.090;14.420;2022-07-29T10:15:32;99426.38;;;26.72;33.20
67740;BME280;54536;50.090;14.420;2022-07-29T10:18:01;99428.16;;;26.67;33.26
67740;BME280;54536;50.090;14.420;2022-07-29T10:20:30;99424.25;;;26.74;33.59
67740;BME280;54536;50.090;14.420;2022-07-29T10:22:59;99428.34;;;26.77;33.04
67740;BME280;54536;50.090;14.420;2022-07-29T10:25:26;99430.28;;;26.65;33.54
67740;BME280;54536;50.090;14.420;2022-07-29T10:27:54;99427.72;;;26.58;33.24
67740;BME280;54536;50.090;14.420;2022-07-29T10:30:23;99422.78;;;26.67;33.96
67740;BME280;54536;50.090;14.420;2022-07-29T10:39:00;99419.97;;;26.90;33.81
67740;BME280;54536;50.090;14.420;2022-07-29T10:41:39;99416.16;;;26.74;34.01
67740;BME280;54536;50.090;14.420;2022-07-29T10:44:23;99420.88;;;26.96;33.78
67740;BME280;54536;50.090;14.420;2022-07-29T10:46:52;99423.41;;;27.02;33.87
67740;BME280;54536;50.090;14.420;2022-07-29T10:49:28;99420.91;;;27.13;33.82
67740;BME280;54536;50.090;14.420;2022-07-29T10:52:04;99419.16;;;26.90;34.15
67740;BME280;54536;50.090;14.420;2022-07-29T10:54:48;99421.84;;;26.90;34.70
67740;BME280;54536;50.090;14.420;2022-07-29T10:57:30;99420.78;;;26.91;35.03
67740;BME280;54536;50.090;14.420;2022-07-29T11:02:44;99420.41;;;26.99;33.98
67740;BME280;54536;50.090;14.420;2022-07-29T11:05:22;99417.75;;;27.16;34.32
67740;BME280;54536;50.090;14.420;2022-07-29T11:10:40;99421.31;;;27.04;34.50
67740;BME280;54536;50.090;14.420;2022-07-29T11:13:11;99412.34;;;27.33;34.10
67740;BME280;54536;50.090;14.420;2022-07-29T11:15:56;99413.66;;;27.47;33.81
67740;BME280;54536;50.090;14.420;2022-07-29T11:18:25;99418.38;;;27.57;33.81
67740;BME280;54536;50.090;14.420;2022-07-29T11:20:52;99424.59;;;27.40;34.15
67740;BME280;54536;50.090;14.420;2022-07-29T11:26:20;99421.44;;;27.77;33.38
67740;BME280;54536;50.090;14.420;2022-07-29T11:31:52;99420.97;;;28.02;33.26
67740;BME280;54536;50.090;14.420;2022-07-29T11:34:32;99416.72;;;27.89;32.78
67740;BME280;54536;50.090;14.420;2022-07-29T11:45:04;99429.53;;;28.16;33.30
67740;BME280;54536;50.090;14.420;2022-07-29T11:47:33;99423.75;;;28.29;33.58
67740;BME280;54536;50.090;14.420;2022-07-29T11:50:02;99426.69;;;28.28;32.95
67740;BME280;54536;50.090;14.420;2022-07-29T11:52:35;99420.28;;;28.34;32.98
67740;BME280;54536;50.090;14.420;2022-07-29T11:55:11;99419.28;;;28.18;33.42
67740;BME280;54536;50.090;14.420;2022-07-29T11:57:49;99416.75;;;28.11;33.40
67740;BME280;54536;50.090;14.420;2022-07-29T12:00:46;99418.16;;;28.14;33.29
67740;BME280;54536;50.090;14.420;2022-07-29T12:03:27;99417.38;;;28.18;33.43
67740;BME280;54536;50.090;14.420;2022-07-29T12:05:54;99415.13;;;28.10;33.93
67740;BME280;54536;50.090;14.420;2022-07-29T12:08:24;99405.59;;;28.03;33.13
67740;BME280;54536;50.090;14.420;2022-07-29T12:10:52;99408.78;;;27.83;33.81
67740;BME280;54536;50.090;14.420;2022-07-29T12:13:23;99409.50;;;27.95;34.21
67740;BME280;54536;50.090;14.420;2022-07-29T12:15:53;99407.69;;;28.00;34.13
67740;BME280;54536;50.090;14.420;2022-07-29T12:18:26;99403.06;;;27.96;33.96
67740;BME280;54536;50.090;14.420;2022-07-29T12:21:19;99398.28;;;28.03;33.76
67740;BME280;54536;50.090;14.420;2022-07-29T12:23:53;99395.44;;;27.93;33.65
67740;BME280;54536;50.090;14.420;2022-07-29T12:26:26;99395.38;;;27.88;33.71
67740;BME280;54536;50.090;14.420;2022-07-29T12:28:53;99385.13;;;27.90;33.86
67740;BME280;54536;50.090;14.420;2022-07-29T12:31:23;99400.72;;;28.05;34.02
67740;BME280;54536;50.090;14.420;2022-07-29T12:33:53;99391.88;;;28.09;34.16
67740;BME280;54536;50.090;14.420;2022-07-29T17:17:52;99224.44;;;26.81;40.53
67740;BME280;54536;50.090;14.420;2022-07-29T17:41:15;99216.31;;;26.30;40.47
67740;BME280;54536;50.090;14.420;2022-07-29T18:00:50;99208.66;;;26.39;39.37
67740;BME280;54536;50.090;14.420;2022-07-29T18:34:54;99211.72;;;25.85;41.06
67740;BME280;54536;50.090;14.420;2022-07-29T18:56:59;99232.84;;;25.65;41.53
67740;BME280;54536;50.090;14.420;2022-07-29T18:59:34;99239.84;;;25.78;40.92
67740;BME280;54536;50.090;14.420;2022-07-29T19:02:23;99242.09;;;25.69;41.47
67740;BME280;54536;50.090;14.420;2022-07-29T19:34:35;99245.50;;;25.53;42.23
67740;BME280;54536;50.090;14.420;2022-07-29T19:37:35;99251.66;;;25.25;42.92
67740;BME280;54536;50.090;14.420;2022-07-29T19:40:51;99261.59;;;25.36;42.85
67740;BME280;54536;50.090;14.420;2022-07-29T19:43:58;99263.47;;;25.35;43.17
67740;BME280;54536;50.090;14.420;2022-07-29T19:47:03;99251.97;;;25.52;42.55
67740;BME280;54536;50.090;14.420;2022-07-29T19:49:54;99255.47;;;25.52;43.18
67740;BME280;54536;50.090;14.420;2022-07-29T19:53:02;99257.47;;;25.45;42.95
67740;BME280;54536;50.090;14.420;2022-07-29T19:56:00;99251.53;;;25.31;43.27
67740;BME280;54536;50.090;14.420;2022-07-29T19:59:21;99248.47;;;25.39;43.15
67740;BME280;54536;50.090;14.420;2022-07-29T20:05:39;99251.16;;;25.28;43.39
67740;BME280;54536;50.090;14.420;2022-07-29T20:08:45;99244.16;;;25.27;43.85
67740;BME280;54536;50.090;14.420;2022-07-29T20:15:01;99238.41;;;25.35;43.63
67740;BME280;54536;50.090;14.420;2022-07-29T20:31:09;99246.28;;;25.13;44.35
67740;BME280;54536;50.090;14.420;2022-07-29T20:47:05;99240.00;;;24.65;45.21
67740;BME280;54536;50.090;14.420;2022-07-29T20:52:23;99244.97;;;24.38;45.98
67740;BME280;54536;50.090;14.420;2022-07-29T20:55:12;99254.91;;;24.38;46.19
67740;BME280;54536;50.090;14.420;2022-07-29T20:57:39;99240.28;;;24.34;45.98
67740;BME280;54536;50.090;14.420;2022-07-29T21:00:08;99236.53;;;24.35;45.68
67740;BME280;54536;50.090;14.420;2022-07-29T21:05:21;99233.56;;;24.55;45.08
67740;BME280;54536;50.090;14.420;2022-07-29T21:07:49;99243.97;;;24.51;45.84
67740;BME280;54536;50.090;14.420;2022-07-29T21:10:19;99245.56;;;24.40;45.50
67740;BME280;54536;50.090;14.420;2022-07-29T21:12:51;99251.69;;;24.47;45.81
67740;BME280;54536;50.090;14.420;2022-07-29T21:15:18;99253.16;;;24.13;46.55
67740;BME280;54536;50.090;14.420;2022-07-29T21:17:50;99245.66;;;24.34;46.19
67740;BME280;54536;50.090;14.420;2022-07-29T21:20:41;99244.97;;;24.38;45.66
67740;BME280;54536;50.090;14.420;2022-07-29T21:23:07;99243.25;;;24.44;45.63
67740;BME280;54536;50.090;14.420;2022-07-29T21:25:34;99243.09;;;24.39;45.96
67740;BME280;54536;50.090;14.420;2022-07-29T21:28:08;99244.84;;;24.33;45.83
67740;BME280;54536;50.090;14.420;2022-07-29T21:31:01;99251.69;;;24.17;46.63
67740;BME280;54536;50.090;14.420;2022-07-29T21:33:30;99250.00;;;24.04;46.72
67740;BME280;54536;50.090;14.420;2022-07-29T21:35:56;99251.63;;;24.05;46.71
67740;BME280;54536;50.090;14.420;2022-07-29T21:38:25;99257.41;;;24.21;46.76